Maersk Douglas — DCPL2 — position and weather

sailwx.info

Track history (hours):
 
Tides and Currents Weather Stations Pressure Air Temp Water Temp Dewpoint Dewpoint Depression Visibility Wind Speed Wind Dir Waves Ship Positions

Maersk Douglas

Last reported at 2017-Oct-19 23:30 UTC. Time now 2017-Oct-19 23:55 UTC.
Position N 53°33' E 009°55'.

Length 294.1 m; beam 32.2 m; draft 13.7 m.

Type: Tug. MMSI: 211710650.

Date/timePositionNaut miles runAvg speedWind from/ knotsBaromVisibWave heightAir tempDewpointWater temp
2017-Oct-19 23:30N 53°33' E 009°55'0 0.0
2017-Oct-19 23:00N 53°33' E 009°55'0 0.0
2017-Oct-19 22:31N 53°33' E 009°55'0 0.0
2017-Oct-19 22:00N 53°33' E 009°55'0 0.0
2017-Oct-19 21:30N 53°33' E 009°55'0 0.0
2017-Oct-19 21:00N 53°33' E 009°55'0 0.0
2017-Oct-19 20:30N 53°33' E 009°55'0 0.0
2017-Oct-19 20:00N 53°33' E 009°55'0 0.0
2017-Oct-19 19:30N 53°33' E 009°55'0 0.0
2017-Oct-19 19:00N 53°33' E 009°55'0 0.0
2017-Oct-19 18:30N 53°33' E 009°55'0 0.0
2017-Oct-19 18:00N 53°33' E 009°55'0 0.0
2017-Oct-19 17:31N 53°33' E 009°55'0 0.0
2017-Oct-19 17:01N 53°33' E 009°55'0 0.0
2017-Oct-19 16:30N 53°33' E 009°55'0 0.0
2017-Oct-19 16:00N 53°33' E 009°55'1 1.5
2017-Oct-19 15:31N 53°32' E 009°55'1 1.5
2017-Oct-19 15:00N 53°33' E 009°54'2 4.2
2017-Oct-19 14:31N 53°33' E 009°51'3 5.6
2017-Oct-19 14:01N 53°33' E 009°55'0 0.0
2017-Oct-19 13:31N 53°33' E 009°55'0 0.0
2017-Oct-19 13:00N 53°33' E 009°55'0 0.0
2017-Oct-19 12:31N 53°33' E 009°55'0 0.0
2017-Oct-19 12:01N 53°33' E 009°55'0 0.0
2017-Oct-19 11:31N 53°33' E 009°55'0 0.0
2017-Oct-19 11:00N 53°33' E 009°55'0 0.0
2017-Oct-19 10:30N 53°33' E 009°55'0 0.0
2017-Oct-19 10:01N 53°33' E 009°55'0 0.0
2017-Oct-19 09:31N 53°33' E 009°55'0 0.0
2017-Oct-19 09:00N 53°33' E 009°55'0 0.0
2017-Oct-19 08:31N 53°33' E 009°55'0 0.0
2017-Oct-19 08:00N 53°33' E 009°55'0 0.0
2017-Oct-19 07:30N 53°33' E 009°55'0 0.0
2017-Oct-19 07:00N 53°33' E 009°55'0 0.0
2017-Oct-19 06:30N 53°33' E 009°55'0 0.0
2017-Oct-19 06:01N 53°33' E 009°55'0 0.0
2017-Oct-19 05:30N 53°33' E 009°55'0 0.0
2017-Oct-19 05:00N 53°33' E 009°55'0 0.0
2017-Oct-19 04:30N 53°33' E 009°55'0 0.0
2017-Oct-19 04:01N 53°33' E 009°55'0 0.0
2017-Oct-19 03:30N 53°33' E 009°55'2 3.3
2017-Oct-19 03:00N 53°31' E 009°56'0 0.9
2017-Oct-19 02:30N 53°31' E 009°56'2 3.0
2017-Oct-19 02:00N 53°32' E 009°54'0 0.8
2017-Oct-19 01:30N 53°33' E 009°54'1 2.0
2017-Oct-19 01:00N 53°33' E 009°55'0 0.0
2017-Oct-19 00:31N 53°33' E 009°55'0 0.0
2017-Oct-19 00:00N 53°33' E 009°55'0 0.0
2017-Oct-18 23:31N 53°33' E 009°55'0 0.0
2017-Oct-18 23:00N 53°33' E 009°55'0 0.0
2017-Oct-18 22:30N 53°33' E 009°55'0 0.0
2017-Oct-18 22:01N 53°33' E 009°55'0 0.0
2017-Oct-18 21:31N 53°33' E 009°55'0 0.0
2017-Oct-18 21:00N 53°33' E 009°55'0 0.0
2017-Oct-18 20:30N 53°33' E 009°55'0 0.0
2017-Oct-18 20:01N 53°33' E 009°55'0 0.0
2017-Oct-18 19:30N 53°33' E 009°55'0 0.0
2017-Oct-18 19:00N 53°33' E 009°55'0 0.0
2017-Oct-18 18:30N 53°33' E 009°55'0 0.0
2017-Oct-18 18:01N 53°33' E 009°55'0 0.0
2017-Oct-18 17:30N 53°33' E 009°55'0 0.0
2017-Oct-18 17:00N 53°33' E 009°55'0 0.0
2017-Oct-18 16:30N 53°33' E 009°55'0 0.0
2017-Oct-18 16:01N 53°33' E 009°55'0 0.0
2017-Oct-18 15:30N 53°33' E 009°55'0 0.0
2017-Oct-18 15:00N 53°33' E 009°55'0 0.0
2017-Oct-18 14:00N 53°33' E 009°55'0 0.0
2017-Oct-18 13:30N 53°33' E 009°55'2 3.4
2017-Oct-18 13:01N 53°33' E 009°58'0 0.3
2017-Oct-18 12:31N 53°33' E 009°58'2 3.7
2017-Oct-18 12:01N 53°32' E 009°55'1 2.0
2017-Oct-18 11:31N 53°32' E 009°54'1 1.4
2017-Oct-18 11:00N 53°33' E 009°55'0 0.0
2017-Oct-18 10:30N 53°33' E 009°55'0 0.0
2017-Oct-18 10:01N 53°33' E 009°55'0 0.0
2017-Oct-18 09:30N 53°33' E 009°55'0 0.0
2017-Oct-18 09:00N 53°33' E 009°55'0 0.0
2017-Oct-18 08:30N 53°33' E 009°55'0 0.0
2017-Oct-18 08:00N 53°33' E 009°55'0 0.0
2017-Oct-18 07:30N 53°33' E 009°55'0 0.0
2017-Oct-18 07:01N 53°33' E 009°55'0 0.0
2017-Oct-18 06:31N 53°33' E 009°55'0 0.0
2017-Oct-18 06:00N 53°33' E 009°55'0 0.0
2017-Oct-18 05:30N 53°33' E 009°55'0 0.0
2017-Oct-18 05:01N 53°33' E 009°55'0 0.0
2017-Oct-18 04:30N 53°33' E 009°55'0 0.0
2017-Oct-18 04:00N 53°33' E 009°55'0 0.0
2017-Oct-18 03:30N 53°33' E 009°55'0 0.0
2017-Oct-18 03:00N 53°33' E 009°55'0 0.0
2017-Oct-18 02:31N 53°33' E 009°55'0 0.0
2017-Oct-18 02:00N 53°33' E 009°55'0 0.0
2017-Oct-18 01:30N 53°33' E 009°55'0 0.0
2017-Oct-18 01:00N 53°33' E 009°55'0 0.0
2017-Oct-18 00:30N 53°33' E 009°55'0 0.0
2017-Oct-18 00:01N 53°33' E 009°55'0 0.0
2017-Oct-17 23:30N 53°33' E 009°55'0 0.0
2017-Oct-17 23:00N 53°33' E 009°55'0 0.0
2017-Oct-17 22:31N 53°33' E 009°55'0 0.0
2017-Oct-17 22:00N 53°33' E 009°55'0 0.0
2017-Oct-17 21:30N 53°33' E 009°55'0 0.0
2017-Oct-17 21:01N 53°33' E 009°55'0 0.0
2017-Oct-17 20:30N 53°33' E 009°55'0 0.0
2017-Oct-17 20:00N 53°33' E 009°55'2 4.5
2017-Oct-17 19:30N 53°32' E 009°59'0 0.3
2017-Oct-17 19:00N 53°32' E 009°59'1 1.4
2017-Oct-17 18:30N 53°33' E 009°58'1 1.6
2017-Oct-17 18:01N 53°32' E 009°58'2 3.3
2017-Oct-17 17:30N 53°33' E 009°55'0 0.0
2017-Oct-17 17:00N 53°33' E 009°55'0 0.0
2017-Oct-17 16:31N 53°33' E 009°55'0 0.0
2017-Oct-17 16:00N 53°33' E 009°55'0 0.0
2017-Oct-17 15:31N 53°33' E 009°55'0 0.0
2017-Oct-17 15:00N 53°33' E 009°55'2 3.7
2017-Oct-17 14:30N 53°33' E 009°59'0 0.6
2017-Oct-17 14:00N 53°32' E 009°59'0 0.3
2017-Oct-17 13:31N 53°32' E 009°59'0 0.0
2017-Oct-17 13:00N 53°32' E 009°59'1 2.9
2017-Oct-17 12:30N 53°32' E 009°56'0 0.9
2017-Oct-17 12:00N 53°33' E 009°55'0 0.0
2017-Oct-17 11:30N 53°33' E 009°55'0 0.0
2017-Oct-17 11:01N 53°33' E 009°55'0 0.0
2017-Oct-17 10:30N 53°33' E 009°55'0 0.0
2017-Oct-17 10:00N 53°33' E 009°55'0 0.0
2017-Oct-17 09:30N 53°33' E 009°55'0 0.0
2017-Oct-17 09:00N 53°33' E 009°55'0 0.0
2017-Oct-17 08:30N 53°33' E 009°55'0 0.0
2017-Oct-17 08:00N 53°33' E 009°55'0 0.0
2017-Oct-17 07:31N 53°33' E 009°55'0 0.0
2017-Oct-17 07:01N 53°33' E 009°55'0 0.0
2017-Oct-17 06:31N 53°33' E 009°55'0 0.0
2017-Oct-17 06:01N 53°33' E 009°55'0 0.0
2017-Oct-17 05:30N 53°33' E 009°55'0 0.0
2017-Oct-17 05:00N 53°33' E 009°55'0 0.0
2017-Oct-17 04:30N 53°33' E 009°55'0 0.0
2017-Oct-17 04:00N 53°33' E 009°55'0 0.1
2017-Oct-17 03:31N 53°33' E 009°55'4 8.1
2017-Oct-17 03:00N 53°33' E 009°49'4 9.0
2017-Oct-17 02:30N 53°34' E 009°41'5 9.6
2017-Oct-17 02:00N 53°36' E 009°34'3 6.8
2017-Oct-17 01:31N 53°39' E 009°31'0 0.9
2017-Oct-17 01:01N 53°40' E 009°31'0 0.6
2017-Oct-17 00:30N 53°39' E 009°31'1 2.1
2017-Oct-17 00:00N 53°38' E 009°32'5 9.7
2017-Oct-16 23:31N 53°35' E 009°37'5 9.8
2017-Oct-16 23:00N 53°34' E 009°45'5 9.8
2017-Oct-16 22:31N 53°33' E 009°53'1 2.5
2017-Oct-16 22:01N 53°33' E 009°55'0 0.0
2017-Oct-16 21:30N 53°33' E 009°55'0 0.0
2017-Oct-16 21:00N 53°33' E 009°55'0 0.0
2017-Oct-16 20:31N 53°33' E 009°55'0 0.0
2017-Oct-16 20:00N 53°33' E 009°55'0 0.0
2017-Oct-16 19:30N 53°33' E 009°55'0 0.0
2017-Oct-16 19:00N 53°33' E 009°55'0 0.0
2017-Oct-16 18:30N 53°33' E 009°55'0 0.0
2017-Oct-16 18:01N 53°33' E 009°55'1 2.6
2017-Oct-16 17:30N 53°31' E 009°56'1 1.5
2017-Oct-16 17:00N 53°31' E 009°56'1 2.8
2017-Oct-16 16:30N 53°32' E 009°56'1 1.4
2017-Oct-16 16:00N 53°33' E 009°55'0 0.0
2017-Oct-16 15:31N 53°33' E 009°55'0 0.0
2017-Oct-16 15:00N 53°33' E 009°55'0 0.0
2017-Oct-16 14:01N 53°33' E 009°55'0 0.0
2017-Oct-16 13:30N 53°33' E 009°55'0 0.0
2017-Oct-16 13:00N 53°33' E 009°55'0 0.0
2017-Oct-16 12:31N 53°33' E 009°55'0 0.0
2017-Oct-16 12:01N 53°33' E 009°55'0 0.0
2017-Oct-16 11:31N 53°33' E 009°55'0 0.0
2017-Oct-16 11:01N 53°33' E 009°55'0 0.0
2017-Oct-16 10:30N 53°33' E 009°55'0 0.0
2017-Oct-16 10:00N 53°33' E 009°55'0 0.0
2017-Oct-16 09:31N 53°33' E 009°55'0 0.0
2017-Oct-16 09:00N 53°33' E 009°55'0 0.0
2017-Oct-16 08:31N 53°33' E 009°55'0 0.0
2017-Oct-16 08:00N 53°33' E 009°55'0 0.0
2017-Oct-16 07:31N 53°33' E 009°55'0 0.0
2017-Oct-16 07:00N 53°33' E 009°55'0 0.0
2017-Oct-16 06:30N 53°33' E 009°55'0 0.0
2017-Oct-16 06:00N 53°33' E 009°55'0 0.0
2017-Oct-16 05:30N 53°33' E 009°55'0 0.0
2017-Oct-16 05:00N 53°33' E 009°55'0 0.2
2017-Oct-16 04:30N 53°33' E 009°55'1 2.2
2017-Oct-16 04:00N 53°33' E 009°53'2 3.4
2017-Oct-16 03:31N 53°33' E 009°51'3 5.7
2017-Oct-16 03:00N 53°33' E 009°55'0 0.0
2017-Oct-16 02:30N 53°33' E 009°55'0 0.0
2017-Oct-16 02:00N 53°33' E 009°55'0 0.0
2017-Oct-16 01:30N 53°33' E 009°55'0 0.0
2017-Oct-16 01:00N 53°33' E 009°55'0 0.0
2017-Oct-16 00:30N 53°33' E 009°55'0 0.0
2017-Oct-16 00:00N 53°33' E 009°55'0 0.0
2017-Oct-15 23:31N 53°33' E 009°55'0 0.0
2017-Oct-15 23:00N 53°33' E 009°55'0 0.0
2017-Oct-15 22:31N 53°33' E 009°55'0 0.0
2017-Oct-15 22:00N 53°33' E 009°55'0 0.0
2017-Oct-15 21:31N 53°33' E 009°55'0 0.0
2017-Oct-15 21:00N 53°33' E 009°55'0 0.0
2017-Oct-15 20:31N 53°33' E 009°55'0 0.0
2017-Oct-15 20:01N 53°33' E 009°55'0 0.0
2017-Oct-15 19:31N 53°33' E 009°55'0 0.0
2017-Oct-15 19:01N 53°33' E 009°55'0 0.0
2017-Oct-15 18:30N 53°33' E 009°55'0 0.0
2017-Oct-15 18:00N 53°33' E 009°55'0 0.0
2017-Oct-15 17:30N 53°33' E 009°55'2 3.9
2017-Oct-15 17:00N 53°31' E 009°56'1 1.5
2017-Oct-15 16:31N 53°30' E 009°57'1 2.0
2017-Oct-15 16:00N 53°31' E 009°56'2 3.1
2017-Oct-15 15:31N 53°32' E 009°56'1 1.4
2017-Oct-15 15:00N 53°32' E 009°54'2 2.0
2017-Oct-15 14:00N 53°33' E 009°58'1 1.5
2017-Oct-15 13:30N 53°32' E 009°59'1 1.3
2017-Oct-15 13:00N 53°33' E 009°58'0 0.3
2017-Oct-15 12:31N 53°33' E 009°58'0 0.0
2017-Oct-15 12:00N 53°33' E 009°58'1 1.2
2017-Oct-15 11:30N 53°32' E 009°59'1 2.0
2017-Oct-15 11:01N 53°32' E 009°57'1 1.1
2017-Oct-15 10:31N 53°33' E 009°58'0 0.0
2017-Oct-15 10:00N 53°33' E 009°58'0 0.0
2017-Oct-15 09:30N 53°33' E 009°58'0 0.0
2017-Oct-15 09:00N 53°33' E 009°58'0 0.0
2017-Oct-15 08:31N 53°33' E 009°58'0 0.0
2017-Oct-15 08:01N 53°33' E 009°58'0 0.0
2017-Oct-15 07:30N 53°33' E 009°58'0 0.0
2017-Oct-15 07:01N 53°33' E 009°58'0 0.0
2017-Oct-15 06:30N 53°33' E 009°58'0 0.0
2017-Oct-15 06:01N 53°33' E 009°58'0 0.0
2017-Oct-15 05:30N 53°33' E 009°58'0 0.0
2017-Oct-15 05:00N 53°33' E 009°58'0 0.0
2017-Oct-15 04:30N 53°33' E 009°58'0 0.0
2017-Oct-15 04:00N 53°33' E 009°58'0 0.0
2017-Oct-15 03:30N 53°33' E 009°58'0 0.0
2017-Oct-15 03:00N 53°33' E 009°58'0 0.0
2017-Oct-15 02:31N 53°33' E 009°58'0 0.0
2017-Oct-15 02:00N 53°33' E 009°58'0 0.0
2017-Oct-15 01:30N 53°33' E 009°58'0 0.0
2017-Oct-15 01:01N 53°33' E 009°58'1 2.8
2017-Oct-15 00:31N 53°33' E 009°55'3 6.6
2017-Oct-15 00:00N 53°29' E 009°57'0 0.2
2017-Oct-14 23:31N 53°29' E 009°57'0 0.4
2017-Oct-14 23:00N 53°30' E 009°57'1 1.5
2017-Oct-14 22:31N 53°30' E 009°56'2 3.3
2017-Oct-14 22:01N 53°32' E 009°56'1 2.0
2017-Oct-14 21:30N 53°33' E 009°55'0 0.0
2017-Oct-14 21:00N 53°33' E 009°55'0 0.0
2017-Oct-14 20:30N 53°33' E 009°55'0 0.0
2017-Oct-14 20:00N 53°33' E 009°55'0 0.0
2017-Oct-14 19:30N 53°33' E 009°55'0 0.0
2017-Oct-14 19:00N 53°33' E 009°55'3 5.0
2017-Oct-14 18:30N 53°30' E 009°56'0 0.5
2017-Oct-14 18:00N 53°30' E 009°57'2 3.5
2017-Oct-14 17:30N 53°32' E 009°56'1 2.1
2017-Oct-14 17:01N 53°32' E 009°55'0 0.1
2017-Oct-14 16:31N 53°32' E 009°55'0 0.6
2017-Oct-14 16:01N 53°33' E 009°55'0 0.0
2017-Oct-14 15:31N 53°33' E 009°55'0 0.0
2017-Oct-14 15:00N 53°33' E 009°55'0 0.0
2017-Oct-14 14:30N 53°33' E 009°55'0 0.0
2017-Oct-14 14:00N 53°33' E 009°55'0 0.0
2017-Oct-14 13:30N 53°33' E 009°55'0 0.0
2017-Oct-14 13:00N 53°33' E 009°55'0 0.0
2017-Oct-14 12:31N 53°33' E 009°55'0 0.0
2017-Oct-14 12:01N 53°33' E 009°55'0 0.0
2017-Oct-14 11:30N 53°33' E 009°55'0 0.0
2017-Oct-14 11:00N 53°33' E 009°55'0 0.0
2017-Oct-14 10:31N 53°33' E 009°55'0 0.0
2017-Oct-14 10:00N 53°33' E 009°55'0 0.0
2017-Oct-14 09:30N 53°33' E 009°55'0 0.0
2017-Oct-14 09:01N 53°33' E 009°55'0 0.0
2017-Oct-14 08:31N 53°33' E 009°55'0 0.0
2017-Oct-14 08:00N 53°33' E 009°55'0 0.0
2017-Oct-14 07:30N 53°33' E 009°55'0 0.0
2017-Oct-14 07:00N 53°33' E 009°55'0 0.0
2017-Oct-14 06:30N 53°33' E 009°55'0 0.0
2017-Oct-14 06:00N 53°33' E 009°55'0 0.0
2017-Oct-14 05:31N 53°33' E 009°55'0 0.8
2017-Oct-14 05:00N 53°33' E 009°56'0 0.5
2017-Oct-14 04:31N 53°32' E 009°56'3 5.2
2017-Oct-14 04:00N 53°33' E 009°52'2 3.9
2017-Oct-14 03:30N 53°33' E 009°55'0 0.0
2017-Oct-14 03:00N 53°33' E 009°55'0 0.0
2017-Oct-14 02:30N 53°33' E 009°55'0 0.0
2017-Oct-14 02:01N 53°33' E 009°55'0 0.0
2017-Oct-14 01:30N 53°33' E 009°55'0 0.0
2017-Oct-14 01:00N 53°33' E 009°55'0 0.0
2017-Oct-14 00:30N 53°33' E 009°55'0 0.0
2017-Oct-14 00:00N 53°33' E 009°55'0 0.0
2017-Oct-13 23:31N 53°33' E 009°55'0 0.0
2017-Oct-13 23:01N 53°33' E 009°55'0 0.0
2017-Oct-13 22:30N 53°33' E 009°55'0 0.0
2017-Oct-13 22:00N 53°33' E 009°55'0 0.0
2017-Oct-13 21:30N 53°33' E 009°55'0 0.0
2017-Oct-13 21:00N 53°33' E 009°55'0 0.0
2017-Oct-13 20:30N 53°33' E 009°55'0 0.0
2017-Oct-13 20:00N 53°33' E 009°55'0 0.0
2017-Oct-13 19:30N 53°33' E 009°55'0 0.0
2017-Oct-13 19:00N 53°33' E 009°55'0 0.0
2017-Oct-13 18:31N 53°33' E 009°55'0 0.0
2017-Oct-13 18:01N 53°33' E 009°55'0 0.0
2017-Oct-13 17:30N 53°33' E 009°55'0 0.0
2017-Oct-13 17:00N 53°33' E 009°55'0 0.0
2017-Oct-13 16:31N 53°33' E 009°55'0 0.0
2017-Oct-13 16:01N 53°33' E 009°55'0 0.0
2017-Oct-13 15:30N 53°33' E 009°55'0 0.0
2017-Oct-13 15:00N 53°33' E 009°55'0 0.0
2017-Oct-13 14:30N 53°33' E 009°55'0 0.0
2017-Oct-13 14:00N 53°33' E 009°55'0 0.0
2017-Oct-13 13:31N 53°33' E 009°55'0 0.0
2017-Oct-13 13:00N 53°33' E 009°55'0 0.0
2017-Oct-13 12:30N 53°33' E 009°55'0 0.0
2017-Oct-13 12:00N 53°33' E 009°55'0 0.0
2017-Oct-13 11:30N 53°33' E 009°55'0 0.0
2017-Oct-13 11:01N 53°33' E 009°55'0 0.0
2017-Oct-13 10:30N 53°33' E 009°55'0 0.0
2017-Oct-13 10:01N 53°33' E 009°55'0 0.0
2017-Oct-13 09:30N 53°33' E 009°55'1 1.6
2017-Oct-13 09:00N 53°32' E 009°55'0 0.5
2017-Oct-13 08:31N 53°32' E 009°55'1 2.8
2017-Oct-13 08:00N 53°33' E 009°53'1 2.6
2017-Oct-13 07:30N 53°33' E 009°50'3 5.2
2017-Oct-13 07:01N 53°32' E 009°55'1 1.4
2017-Oct-13 06:30N 53°32' E 009°54'2 4.3
2017-Oct-13 06:00N 53°33' E 009°50'2 4.8
2017-Oct-13 05:31N 53°33' E 009°54'3 5.8
2017-Oct-13 05:00N 53°30' E 009°57'1 1.2
2017-Oct-13 04:30N 53°29' E 009°57'1 1.4
2017-Oct-13 04:00N 53°29' E 009°58'2 3.7
2017-Oct-13 03:30N 53°30' E 009°56'2 4.4
2017-Oct-13 03:01N 53°33' E 009°55'0 0.0
2017-Oct-13 02:30N 53°33' E 009°55'0 0.0
2017-Oct-13 02:01N 53°33' E 009°55'0 0.0
2017-Oct-13 01:30N 53°33' E 009°55'0 0.0
2017-Oct-13 01:01N 53°33' E 009°55'0 0.0
2017-Oct-13 00:31N 53°33' E 009°55'0 0.0
2017-Oct-13 00:01N 53°33' E 009°55'0 0.0
2017-Oct-12 23:30N 53°33' E 009°55'0 0.0
2017-Oct-12 23:00N 53°33' E 009°55'0 0.0
2017-Oct-12 22:30N 53°33' E 009°55'0 0.0
2017-Oct-12 22:01N 53°33' E 009°55'0 0.0
2017-Oct-12 21:31N 53°33' E 009°55'0 0.0
2017-Oct-12 21:01N 53°33' E 009°55'0 0.0
2017-Oct-12 20:30N 53°33' E 009°55'0 0.0
2017-Oct-12 20:01N 53°33' E 009°55'0 0.0
2017-Oct-12 19:30N 53°33' E 009°55'0 0.0
2017-Oct-12 19:00N 53°33' E 009°55'0 0.0
2017-Oct-12 18:30N 53°33' E 009°55'0 0.0
2017-Oct-12 18:00N 53°33' E 009°55'0 0.0
2017-Oct-12 17:30N 53°33' E 009°55'0 0.0
2017-Oct-12 17:01N 53°33' E 009°55'0 0.0
2017-Oct-12 16:31N 53°33' E 009°55'0 0.0
2017-Oct-12 16:00N 53°33' E 009°55'0 0.0
2017-Oct-12 15:30N 53°33' E 009°55'0 0.0
2017-Oct-12 15:01N 53°33' E 009°55'0 0.0
2017-Oct-12 14:30N 53°33' E 009°55'0 0.0
2017-Oct-12 14:00N 53°33' E 009°55'0 0.0
2017-Oct-12 13:31N 53°33' E 009°55'0 0.0
2017-Oct-12 13:00N 53°33' E 009°55'0 0.0
2017-Oct-12 12:31N 53°33' E 009°55'0 0.0
2017-Oct-12 12:00N 53°33' E 009°55'0 0.0
2017-Oct-12 11:30N 53°33' E 009°55'0 0.0
2017-Oct-12 11:01N 53°33' E 009°55'0 0.0
2017-Oct-12 10:31N 53°33' E 009°55'0 0.0
2017-Oct-12 10:00N 53°33' E 009°55'0 0.0
2017-Oct-12 09:30N 53°33' E 009°55'1 1.2
2017-Oct-12 09:01N 53°32' E 009°54'1 1.2
2017-Oct-12 08:31N 53°33' E 009°55'3 5.1
2017-Oct-12 08:01N 53°30' E 009°57'0 0.1
2017-Oct-12 07:30N 53°30' E 009°57'2 4.0
2017-Oct-12 07:00N 53°32' E 009°56'1 1.2
2017-Oct-12 06:30N 53°33' E 009°55'0 0.0
2017-Oct-12 06:00N 53°33' E 009°55'0 0.0
2017-Oct-12 05:31N 53°33' E 009°55'0 0.0
2017-Oct-12 05:00N 53°33' E 009°55'0 0.0
2017-Oct-12 04:30N 53°33' E 009°55'0 0.0
2017-Oct-12 04:00N 53°33' E 009°55'0 0.0
2017-Oct-12 03:30N 53°33' E 009°55'0 0.0
2017-Oct-12 03:00N 53°33' E 009°55'0 0.0
2017-Oct-12 02:31N 53°33' E 009°55'0 0.0
2017-Oct-12 02:00N 53°33' E 009°55'0 0.0
2017-Oct-12 01:31N 53°33' E 009°55'0 0.0
2017-Oct-12 01:01N 53°33' E 009°55'0 0.0
2017-Oct-12 00:30N 53°33' E 009°55'0 0.0
2017-Oct-12 00:00N 53°33' E 009°55'0 0.0
2017-Oct-11 23:30N 53°33' E 009°55'0 0.0
2017-Oct-11 23:01N 53°33' E 009°55'0 0.0
2017-Oct-11 22:30N 53°33' E 009°55'0 0.0
2017-Oct-11 22:01N 53°33' E 009°55'0 0.0
2017-Oct-11 21:31N 53°33' E 009°55'1 1.7
2017-Oct-11 21:00N 53°32' E 009°55'2 4.1
2017-Oct-11 20:31N 53°30' E 009°57'0 0.8
2017-Oct-11 20:01N 53°30' E 009°56'2 3.1
2017-Oct-11 19:31N 53°31' E 009°56'2 4.5
2017-Oct-11 19:01N 53°33' E 009°53'1 2.9
2017-Oct-11 18:30N 53°33' E 009°55'0 0.0
2017-Oct-11 18:01N 53°33' E 009°55'0 0.0
2017-Oct-11 17:30N 53°33' E 009°55'0 0.0
2017-Oct-11 17:00N 53°33' E 009°55'0 0.0
2017-Oct-11 00:00N 53°33' E 009°55'0 0.0
2017-Oct-10 23:31N 53°33' E 009°55'0 0.0
2017-Oct-10 23:00N 53°33' E 009°55'0 0.0
2017-Oct-10 22:30N 53°33' E 009°55'0 0.0
2017-Oct-10 22:01N 53°33' E 009°55'0 0.0
2017-Oct-10 21:30N 53°33' E 009°55'0 0.0
2017-Oct-10 21:01N 53°33' E 009°55'0 0.0
2017-Oct-10 20:30N 53°33' E 009°55'0 0.0
2017-Oct-10 20:01N 53°33' E 009°55'0 0.0
2017-Oct-10 19:30N 53°33' E 009°55'0 0.0
2017-Oct-10 19:00N 53°33' E 009°55'0 0.0
2017-Oct-10 18:31N 53°33' E 009°55'0 0.0
2017-Oct-10 18:01N 53°33' E 009°55'0 0.0
2017-Oct-10 17:30N 53°33' E 009°55'0 0.0
2017-Oct-10 17:00N 53°33' E 009°55'0 0.0
2017-Oct-10 16:31N 53°33' E 009°55'0 0.0
2017-Oct-10 16:01N 53°33' E 009°55'0 0.0
2017-Oct-10 15:30N 53°33' E 009°55'0 0.0
2017-Oct-10 15:00N 53°33' E 009°55'1 0.9
2017-Oct-10 14:01N 53°32' E 009°55'1 1.8
2017-Oct-10 13:30N 53°33' E 009°55'0 0.7
2017-Oct-10 13:00N 53°33' E 009°55'0 0.1
2017-Oct-10 12:31N 53°33' E 009°55'0 0.5
2017-Oct-10 12:01N 53°33' E 009°55'0 0.5
2017-Oct-10 11:30N 53°33' E 009°55'0 0.0
2017-Oct-10 11:00N 53°33' E 009°55'0 0.0
2017-Oct-10 10:30N 53°33' E 009°55'0 0.0
2017-Oct-10 10:00N 53°33' E 009°55'0 0.0
2017-Oct-10 09:30N 53°33' E 009°55'0 0.0
2017-Oct-10 09:00N 53°33' E 009°55'0 0.0
2017-Oct-10 08:30N 53°33' E 009°55'0 0.0
2017-Oct-10 08:00N 53°33' E 009°55'0 0.0
2017-Oct-10 07:30N 53°33' E 009°55'0 0.0
2017-Oct-10 07:00N 53°33' E 009°55'0 0.0
2017-Oct-10 06:30N 53°33' E 009°55'0 0.0
2017-Oct-10 06:00N 53°33' E 009°55'0 0.0
2017-Oct-10 05:30N 53°33' E 009°55'0 0.0
2017-Oct-10 05:00N 53°33' E 009°55'0 0.0
2017-Oct-10 04:30N 53°33' E 009°55'0 0.0
2017-Oct-10 04:01N 53°33' E 009°55'0 0.0
2017-Oct-10 03:30N 53°33' E 009°55'0 0.0
2017-Oct-10 03:00N 53°33' E 009°55'0 0.0
2017-Oct-10 02:31N 53°33' E 009°55'0 0.0
2017-Oct-10 02:01N 53°33' E 009°55'0 0.0
2017-Oct-10 01:30N 53°33' E 009°55'0 0.0
2017-Oct-10 01:00N 53°33' E 009°55'0 0.0
2017-Oct-10 00:30N 53°33' E 009°55'0 0.0
2017-Oct-10 00:00N 53°33' E 009°55'0 0.0
2017-Oct-09 23:30N 53°33' E 009°55'  
Track history (hours):
 
Tides and Currents Weather Stations Pressure Air Temp Water Temp Dewpoint Dewpoint Depression Visibility Wind Speed Wind Dir Waves Ship Positions

Maersk Douglas

Last reported at 2017-Oct-19 23:30 UTC. Time now 2017-Oct-19 23:55 UTC.
Position N 53°33' E 009°55'.

Length 294.1 m; beam 32.2 m; draft 13.7 m.

Type: Tug. MMSI: 211710650.

Date/timePositionNaut miles runAvg speedWind from/ knotsBaromVisibWave heightAir tempDewpointWater temp
2017-Oct-19 23:30N 53°33' E 009°55'0 0.0
2017-Oct-19 23:00N 53°33' E 009°55'0 0.0
2017-Oct-19 22:31N 53°33' E 009°55'0 0.0
2017-Oct-19 22:00N 53°33' E 009°55'0 0.0
2017-Oct-19 21:30N 53°33' E 009°55'0 0.0
2017-Oct-19 21:00N 53°33' E 009°55'0 0.0
2017-Oct-19 20:30N 53°33' E 009°55'0 0.0
2017-Oct-19 20:00N 53°33' E 009°55'0 0.0
2017-Oct-19 19:30N 53°33' E 009°55'0 0.0
2017-Oct-19 19:00N 53°33' E 009°55'0 0.0
2017-Oct-19 18:30N 53°33' E 009°55'0 0.0
2017-Oct-19 18:00N 53°33' E 009°55'0 0.0
2017-Oct-19 17:31N 53°33' E 009°55'0 0.0
2017-Oct-19 17:01N 53°33' E 009°55'0 0.0
2017-Oct-19 16:30N 53°33' E 009°55'0 0.0
2017-Oct-19 16:00N 53°33' E 009°55'1 1.5
2017-Oct-19 15:31N 53°32' E 009°55'1 1.5
2017-Oct-19 15:00N 53°33' E 009°54'2 4.2
2017-Oct-19 14:31N 53°33' E 009°51'3 5.6
2017-Oct-19 14:01N 53°33' E 009°55'0 0.0
2017-Oct-19 13:31N 53°33' E 009°55'0 0.0
2017-Oct-19 13:00N 53°33' E 009°55'0 0.0
2017-Oct-19 12:31N 53°33' E 009°55'0 0.0
2017-Oct-19 12:01N 53°33' E 009°55'0 0.0
2017-Oct-19 11:31N 53°33' E 009°55'0 0.0
2017-Oct-19 11:00N 53°33' E 009°55'0 0.0
2017-Oct-19 10:30N 53°33' E 009°55'0 0.0
2017-Oct-19 10:01N 53°33' E 009°55'0 0.0
2017-Oct-19 09:31N 53°33' E 009°55'0 0.0
2017-Oct-19 09:00N 53°33' E 009°55'0 0.0
2017-Oct-19 08:31N 53°33' E 009°55'0 0.0
2017-Oct-19 08:00N 53°33' E 009°55'0 0.0
2017-Oct-19 07:30N 53°33' E 009°55'0 0.0
2017-Oct-19 07:00N 53°33' E 009°55'0 0.0
2017-Oct-19 06:30N 53°33' E 009°55'0 0.0
2017-Oct-19 06:01N 53°33' E 009°55'0 0.0
2017-Oct-19 05:30N 53°33' E 009°55'0 0.0
2017-Oct-19 05:00N 53°33' E 009°55'0 0.0
2017-Oct-19 04:30N 53°33' E 009°55'0 0.0
2017-Oct-19 04:01N 53°33' E 009°55'0 0.0
2017-Oct-19 03:30N 53°33' E 009°55'2 3.3
2017-Oct-19 03:00N 53°31' E 009°56'0 0.9
2017-Oct-19 02:30N 53°31' E 009°56'2 3.0
2017-Oct-19 02:00N 53°32' E 009°54'0 0.8
2017-Oct-19 01:30N 53°33' E 009°54'1 2.0
2017-Oct-19 01:00N 53°33' E 009°55'0 0.0
2017-Oct-19 00:31N 53°33' E 009°55'0 0.0
2017-Oct-19 00:00N 53°33' E 009°55'0 0.0
2017-Oct-18 23:31N 53°33' E 009°55'0 0.0
2017-Oct-18 23:00N 53°33' E 009°55'0 0.0
2017-Oct-18 22:30N 53°33' E 009°55'0 0.0
2017-Oct-18 22:01N 53°33' E 009°55'0 0.0
2017-Oct-18 21:31N 53°33' E 009°55'0 0.0
2017-Oct-18 21:00N 53°33' E 009°55'0 0.0
2017-Oct-18 20:30N 53°33' E 009°55'0 0.0
2017-Oct-18 20:01N 53°33' E 009°55'0 0.0
2017-Oct-18 19:30N 53°33' E 009°55'0 0.0
2017-Oct-18 19:00N 53°33' E 009°55'0 0.0
2017-Oct-18 18:30N 53°33' E 009°55'0 0.0
2017-Oct-18 18:01N 53°33' E 009°55'0 0.0
2017-Oct-18 17:30N 53°33' E 009°55'0 0.0
2017-Oct-18 17:00N 53°33' E 009°55'0 0.0
2017-Oct-18 16:30N 53°33' E 009°55'0 0.0
2017-Oct-18 16:01N 53°33' E 009°55'0 0.0
2017-Oct-18 15:30N 53°33' E 009°55'0 0.0
2017-Oct-18 15:00N 53°33' E 009°55'0 0.0
2017-Oct-18 14:00N 53°33' E 009°55'0 0.0
2017-Oct-18 13:30N 53°33' E 009°55'2 3.4
2017-Oct-18 13:01N 53°33' E 009°58'0 0.3
2017-Oct-18 12:31N 53°33' E 009°58'2 3.7
2017-Oct-18 12:01N 53°32' E 009°55'1 2.0
2017-Oct-18 11:31N 53°32' E 009°54'1 1.4
2017-Oct-18 11:00N 53°33' E 009°55'0 0.0
2017-Oct-18 10:30N 53°33' E 009°55'0 0.0
2017-Oct-18 10:01N 53°33' E 009°55'0 0.0
2017-Oct-18 09:30N 53°33' E 009°55'0 0.0
2017-Oct-18 09:00N 53°33' E 009°55'0 0.0
2017-Oct-18 08:30N 53°33' E 009°55'0 0.0
2017-Oct-18 08:00N 53°33' E 009°55'0 0.0
2017-Oct-18 07:30N 53°33' E 009°55'0 0.0
2017-Oct-18 07:01N 53°33' E 009°55'0 0.0
2017-Oct-18 06:31N 53°33' E 009°55'0 0.0
2017-Oct-18 06:00N 53°33' E 009°55'0 0.0
2017-Oct-18 05:30N 53°33' E 009°55'0 0.0
2017-Oct-18 05:01N 53°33' E 009°55'0 0.0
2017-Oct-18 04:30N 53°33' E 009°55'0 0.0
2017-Oct-18 04:00N 53°33' E 009°55'0 0.0
2017-Oct-18 03:30N 53°33' E 009°55'0 0.0
2017-Oct-18 03:00N 53°33' E 009°55'0 0.0
2017-Oct-18 02:31N 53°33' E 009°55'0 0.0
2017-Oct-18 02:00N 53°33' E 009°55'0 0.0
2017-Oct-18 01:30N 53°33' E 009°55'0 0.0
2017-Oct-18 01:00N 53°33' E 009°55'0 0.0
2017-Oct-18 00:30N 53°33' E 009°55'0 0.0
2017-Oct-18 00:01N 53°33' E 009°55'0 0.0
2017-Oct-17 23:30N 53°33' E 009°55'0 0.0
2017-Oct-17 23:00N 53°33' E 009°55'0 0.0
2017-Oct-17 22:31N 53°33' E 009°55'0 0.0
2017-Oct-17 22:00N 53°33' E 009°55'0 0.0
2017-Oct-17 21:30N 53°33' E 009°55'0 0.0
2017-Oct-17 21:01N 53°33' E 009°55'0 0.0
2017-Oct-17 20:30N 53°33' E 009°55'0 0.0
2017-Oct-17 20:00N 53°33' E 009°55'2 4.5
2017-Oct-17 19:30N 53°32' E 009°59'0 0.3
2017-Oct-17 19:00N 53°32' E 009°59'1 1.4
2017-Oct-17 18:30N 53°33' E 009°58'1 1.6
2017-Oct-17 18:01N 53°32' E 009°58'2 3.3
2017-Oct-17 17:30N 53°33' E 009°55'0 0.0
2017-Oct-17 17:00N 53°33' E 009°55'0 0.0
2017-Oct-17 16:31N 53°33' E 009°55'0 0.0
2017-Oct-17 16:00N 53°33' E 009°55'0 0.0
2017-Oct-17 15:31N 53°33' E 009°55'0 0.0
2017-Oct-17 15:00N 53°33' E 009°55'2 3.7
2017-Oct-17 14:30N 53°33' E 009°59'0 0.6
2017-Oct-17 14:00N 53°32' E 009°59'0 0.3
2017-Oct-17 13:31N 53°32' E 009°59'0 0.0
2017-Oct-17 13:00N 53°32' E 009°59'1 2.9
2017-Oct-17 12:30N 53°32' E 009°56'0 0.9
2017-Oct-17 12:00N 53°33' E 009°55'0 0.0
2017-Oct-17 11:30N 53°33' E 009°55'0 0.0
2017-Oct-17 11:01N 53°33' E 009°55'0 0.0
2017-Oct-17 10:30N 53°33' E 009°55'0 0.0
2017-Oct-17 10:00N 53°33' E 009°55'0 0.0
2017-Oct-17 09:30N 53°33' E 009°55'0 0.0
2017-Oct-17 09:00N 53°33' E 009°55'0 0.0
2017-Oct-17 08:30N 53°33' E 009°55'0 0.0
2017-Oct-17 08:00N 53°33' E 009°55'0 0.0
2017-Oct-17 07:31N 53°33' E 009°55'0 0.0
2017-Oct-17 07:01N 53°33' E 009°55'0 0.0
2017-Oct-17 06:31N 53°33' E 009°55'0 0.0
2017-Oct-17 06:01N 53°33' E 009°55'0 0.0
2017-Oct-17 05:30N 53°33' E 009°55'0 0.0
2017-Oct-17 05:00N 53°33' E 009°55'0 0.0
2017-Oct-17 04:30N 53°33' E 009°55'0 0.0
2017-Oct-17 04:00N 53°33' E 009°55'0 0.1
2017-Oct-17 03:31N 53°33' E 009°55'4 8.1
2017-Oct-17 03:00N 53°33' E 009°49'4 9.0
2017-Oct-17 02:30N 53°34' E 009°41'5 9.6
2017-Oct-17 02:00N 53°36' E 009°34'3 6.8
2017-Oct-17 01:31N 53°39' E 009°31'0 0.9
2017-Oct-17 01:01N 53°40' E 009°31'0 0.6
2017-Oct-17 00:30N 53°39' E 009°31'1 2.1
2017-Oct-17 00:00N 53°38' E 009°32'5 9.7
2017-Oct-16 23:31N 53°35' E 009°37'5 9.8
2017-Oct-16 23:00N 53°34' E 009°45'5 9.8
2017-Oct-16 22:31N 53°33' E 009°53'1 2.5
2017-Oct-16 22:01N 53°33' E 009°55'0 0.0
2017-Oct-16 21:30N 53°33' E 009°55'0 0.0
2017-Oct-16 21:00N 53°33' E 009°55'0 0.0
2017-Oct-16 20:31N 53°33' E 009°55'0 0.0
2017-Oct-16 20:00N 53°33' E 009°55'0 0.0
2017-Oct-16 19:30N 53°33' E 009°55'0 0.0
2017-Oct-16 19:00N 53°33' E 009°55'0 0.0
2017-Oct-16 18:30N 53°33' E 009°55'0 0.0
2017-Oct-16 18:01N 53°33' E 009°55'1 2.6
2017-Oct-16 17:30N 53°31' E 009°56'1 1.5
2017-Oct-16 17:00N 53°31' E 009°56'1 2.8
2017-Oct-16 16:30N 53°32' E 009°56'1 1.4
2017-Oct-16 16:00N 53°33' E 009°55'0 0.0
2017-Oct-16 15:31N 53°33' E 009°55'0 0.0
2017-Oct-16 15:00N 53°33' E 009°55'0 0.0
2017-Oct-16 14:01N 53°33' E 009°55'0 0.0
2017-Oct-16 13:30N 53°33' E 009°55'0 0.0
2017-Oct-16 13:00N 53°33' E 009°55'0 0.0
2017-Oct-16 12:31N 53°33' E 009°55'0 0.0
2017-Oct-16 12:01N 53°33' E 009°55'0 0.0
2017-Oct-16 11:31N 53°33' E 009°55'0 0.0
2017-Oct-16 11:01N 53°33' E 009°55'0 0.0
2017-Oct-16 10:30N 53°33' E 009°55'0 0.0
2017-Oct-16 10:00N 53°33' E 009°55'0 0.0
2017-Oct-16 09:31N 53°33' E 009°55'0 0.0
2017-Oct-16 09:00N 53°33' E 009°55'0 0.0
2017-Oct-16 08:31N 53°33' E 009°55'0 0.0
2017-Oct-16 08:00N 53°33' E 009°55'0 0.0
2017-Oct-16 07:31N 53°33' E 009°55'0 0.0
2017-Oct-16 07:00N 53°33' E 009°55'0 0.0
2017-Oct-16 06:30N 53°33' E 009°55'0 0.0
2017-Oct-16 06:00N 53°33' E 009°55'0 0.0
2017-Oct-16 05:30N 53°33' E 009°55'0 0.0
2017-Oct-16 05:00N 53°33' E 009°55'0 0.2
2017-Oct-16 04:30N 53°33' E 009°55'1 2.2
2017-Oct-16 04:00N 53°33' E 009°53'2 3.4
2017-Oct-16 03:31N 53°33' E 009°51'3 5.7
2017-Oct-16 03:00N 53°33' E 009°55'0 0.0
2017-Oct-16 02:30N 53°33' E 009°55'0 0.0
2017-Oct-16 02:00N 53°33' E 009°55'0 0.0
2017-Oct-16 01:30N 53°33' E 009°55'0 0.0
2017-Oct-16 01:00N 53°33' E 009°55'0 0.0
2017-Oct-16 00:30N 53°33' E 009°55'0 0.0
2017-Oct-16 00:00N 53°33' E 009°55'0 0.0
2017-Oct-15 23:31N 53°33' E 009°55'0 0.0
2017-Oct-15 23:00N 53°33' E 009°55'0 0.0
2017-Oct-15 22:31N 53°33' E 009°55'0 0.0
2017-Oct-15 22:00N 53°33' E 009°55'0 0.0
2017-Oct-15 21:31N 53°33' E 009°55'0 0.0
2017-Oct-15 21:00N 53°33' E 009°55'0 0.0
2017-Oct-15 20:31N 53°33' E 009°55'0 0.0
2017-Oct-15 20:01N 53°33' E 009°55'0 0.0
2017-Oct-15 19:31N 53°33' E 009°55'0 0.0
2017-Oct-15 19:01N 53°33' E 009°55'0 0.0
2017-Oct-15 18:30N 53°33' E 009°55'0 0.0
2017-Oct-15 18:00N 53°33' E 009°55'0 0.0
2017-Oct-15 17:30N 53°33' E 009°55'2 3.9
2017-Oct-15 17:00N 53°31' E 009°56'1 1.5
2017-Oct-15 16:31N 53°30' E 009°57'1 2.0
2017-Oct-15 16:00N 53°31' E 009°56'2 3.1
2017-Oct-15 15:31N 53°32' E 009°56'1 1.4
2017-Oct-15 15:00N 53°32' E 009°54'2 2.0
2017-Oct-15 14:00N 53°33' E 009°58'1 1.5
2017-Oct-15 13:30N 53°32' E 009°59'1 1.3
2017-Oct-15 13:00N 53°33' E 009°58'0 0.3
2017-Oct-15 12:31N 53°33' E 009°58'0 0.0
2017-Oct-15 12:00N 53°33' E 009°58'1 1.2
2017-Oct-15 11:30N 53°32' E 009°59'1 2.0
2017-Oct-15 11:01N 53°32' E 009°57'1 1.1
2017-Oct-15 10:31N 53°33' E 009°58'0 0.0
2017-Oct-15 10:00N 53°33' E 009°58'0 0.0
2017-Oct-15 09:30N 53°33' E 009°58'0 0.0
2017-Oct-15 09:00N 53°33' E 009°58'0 0.0
2017-Oct-15 08:31N 53°33' E 009°58'0 0.0
2017-Oct-15 08:01N 53°33' E 009°58'0 0.0
2017-Oct-15 07:30N 53°33' E 009°58'0 0.0
2017-Oct-15 07:01N 53°33' E 009°58'0 0.0
2017-Oct-15 06:30N 53°33' E 009°58'0 0.0
2017-Oct-15 06:01N 53°33' E 009°58'0 0.0
2017-Oct-15 05:30N 53°33' E 009°58'0 0.0
2017-Oct-15 05:00N 53°33' E 009°58'0 0.0
2017-Oct-15 04:30N 53°33' E 009°58'0 0.0
2017-Oct-15 04:00N 53°33' E 009°58'0 0.0
2017-Oct-15 03:30N 53°33' E 009°58'0 0.0
2017-Oct-15 03:00N 53°33' E 009°58'0 0.0
2017-Oct-15 02:31N 53°33' E 009°58'0 0.0
2017-Oct-15 02:00N 53°33' E 009°58'0 0.0
2017-Oct-15 01:30N 53°33' E 009°58'0 0.0
2017-Oct-15 01:01N 53°33' E 009°58'1 2.8
2017-Oct-15 00:31N 53°33' E 009°55'3 6.6
2017-Oct-15 00:00N 53°29' E 009°57'0 0.2
2017-Oct-14 23:31N 53°29' E 009°57'0 0.4
2017-Oct-14 23:00N 53°30' E 009°57'1 1.5
2017-Oct-14 22:31N 53°30' E 009°56'2 3.3
2017-Oct-14 22:01N 53°32' E 009°56'1 2.0
2017-Oct-14 21:30N 53°33' E 009°55'0 0.0
2017-Oct-14 21:00N 53°33' E 009°55'0 0.0
2017-Oct-14 20:30N 53°33' E 009°55'0 0.0
2017-Oct-14 20:00N 53°33' E 009°55'0 0.0
2017-Oct-14 19:30N 53°33' E 009°55'0 0.0
2017-Oct-14 19:00N 53°33' E 009°55'3 5.0
2017-Oct-14 18:30N 53°30' E 009°56'0 0.5
2017-Oct-14 18:00N 53°30' E 009°57'2 3.5
2017-Oct-14 17:30N 53°32' E 009°56'1 2.1
2017-Oct-14 17:01N 53°32' E 009°55'0 0.1
2017-Oct-14 16:31N 53°32' E 009°55'0 0.6
2017-Oct-14 16:01N 53°33' E 009°55'0 0.0
2017-Oct-14 15:31N 53°33' E 009°55'0 0.0
2017-Oct-14 15:00N 53°33' E 009°55'0 0.0
2017-Oct-14 14:30N 53°33' E 009°55'0 0.0
2017-Oct-14 14:00N 53°33' E 009°55'0 0.0
2017-Oct-14 13:30N 53°33' E 009°55'0 0.0
2017-Oct-14 13:00N 53°33' E 009°55'0 0.0
2017-Oct-14 12:31N 53°33' E 009°55'0 0.0
2017-Oct-14 12:01N 53°33' E 009°55'0 0.0
2017-Oct-14 11:30N 53°33' E 009°55'0 0.0
2017-Oct-14 11:00N 53°33' E 009°55'0 0.0
2017-Oct-14 10:31N 53°33' E 009°55'0 0.0
2017-Oct-14 10:00N 53°33' E 009°55'0 0.0
2017-Oct-14 09:30N 53°33' E 009°55'0 0.0
2017-Oct-14 09:01N 53°33' E 009°55'0 0.0
2017-Oct-14 08:31N 53°33' E 009°55'0 0.0
2017-Oct-14 08:00N 53°33' E 009°55'0 0.0
2017-Oct-14 07:30N 53°33' E 009°55'0 0.0
2017-Oct-14 07:00N 53°33' E 009°55'0 0.0
2017-Oct-14 06:30N 53°33' E 009°55'0 0.0
2017-Oct-14 06:00N 53°33' E 009°55'0 0.0
2017-Oct-14 05:31N 53°33' E 009°55'0 0.8
2017-Oct-14 05:00N 53°33' E 009°56'0 0.5
2017-Oct-14 04:31N 53°32' E 009°56'3 5.2
2017-Oct-14 04:00N 53°33' E 009°52'2 3.9
2017-Oct-14 03:30N 53°33' E 009°55'0 0.0
2017-Oct-14 03:00N 53°33' E 009°55'0 0.0
2017-Oct-14 02:30N 53°33' E 009°55'0 0.0
2017-Oct-14 02:01N 53°33' E 009°55'0 0.0
2017-Oct-14 01:30N 53°33' E 009°55'0 0.0
2017-Oct-14 01:00N 53°33' E 009°55'0 0.0
2017-Oct-14 00:30N 53°33' E 009°55'0 0.0
2017-Oct-14 00:00N 53°33' E 009°55'0 0.0
2017-Oct-13 23:31N 53°33' E 009°55'0 0.0
2017-Oct-13 23:01N 53°33' E 009°55'0 0.0
2017-Oct-13 22:30N 53°33' E 009°55'0 0.0
2017-Oct-13 22:00N 53°33' E 009°55'0 0.0
2017-Oct-13 21:30N 53°33' E 009°55'0 0.0
2017-Oct-13 21:00N 53°33' E 009°55'0 0.0
2017-Oct-13 20:30N 53°33' E 009°55'0 0.0
2017-Oct-13 20:00N 53°33' E 009°55'0 0.0
2017-Oct-13 19:30N 53°33' E 009°55'0 0.0
2017-Oct-13 19:00N 53°33' E 009°55'0 0.0
2017-Oct-13 18:31N 53°33' E 009°55'0 0.0
2017-Oct-13 18:01N 53°33' E 009°55'0 0.0
2017-Oct-13 17:30N 53°33' E 009°55'0 0.0
2017-Oct-13 17:00N 53°33' E 009°55'0 0.0
2017-Oct-13 16:31N 53°33' E 009°55'0 0.0
2017-Oct-13 16:01N 53°33' E 009°55'0 0.0
2017-Oct-13 15:30N 53°33' E 009°55'0 0.0
2017-Oct-13 15:00N 53°33' E 009°55'0 0.0
2017-Oct-13 14:30N 53°33' E 009°55'0 0.0
2017-Oct-13 14:00N 53°33' E 009°55'0 0.0
2017-Oct-13 13:31N 53°33' E 009°55'0 0.0
2017-Oct-13 13:00N 53°33' E 009°55'0 0.0
2017-Oct-13 12:30N 53°33' E 009°55'0 0.0
2017-Oct-13 12:00N 53°33' E 009°55'0 0.0
2017-Oct-13 11:30N 53°33' E 009°55'0 0.0
2017-Oct-13 11:01N 53°33' E 009°55'0 0.0
2017-Oct-13 10:30N 53°33' E 009°55'0 0.0
2017-Oct-13 10:01N 53°33' E 009°55'0 0.0
2017-Oct-13 09:30N 53°33' E 009°55'1 1.6
2017-Oct-13 09:00N 53°32' E 009°55'0 0.5
2017-Oct-13 08:31N 53°32' E 009°55'1 2.8
2017-Oct-13 08:00N 53°33' E 009°53'1 2.6
2017-Oct-13 07:30N 53°33' E 009°50'3 5.2
2017-Oct-13 07:01N 53°32' E 009°55'1 1.4
2017-Oct-13 06:30N 53°32' E 009°54'2 4.3
2017-Oct-13 06:00N 53°33' E 009°50'2 4.8
2017-Oct-13 05:31N 53°33' E 009°54'3 5.8
2017-Oct-13 05:00N 53°30' E 009°57'1 1.2
2017-Oct-13 04:30N 53°29' E 009°57'1 1.4
2017-Oct-13 04:00N 53°29' E 009°58'2 3.7
2017-Oct-13 03:30N 53°30' E 009°56'2 4.4
2017-Oct-13 03:01N 53°33' E 009°55'0 0.0
2017-Oct-13 02:30N 53°33' E 009°55'0 0.0
2017-Oct-13 02:01N 53°33' E 009°55'0 0.0
2017-Oct-13 01:30N 53°33' E 009°55'0 0.0
2017-Oct-13 01:01N 53°33' E 009°55'0 0.0
2017-Oct-13 00:31N 53°33' E 009°55'0 0.0
2017-Oct-13 00:01N 53°33' E 009°55'0 0.0
2017-Oct-12 23:30N 53°33' E 009°55'0 0.0
2017-Oct-12 23:00N 53°33' E 009°55'0 0.0
2017-Oct-12 22:30N 53°33' E 009°55'0 0.0
2017-Oct-12 22:01N 53°33' E 009°55'0 0.0
2017-Oct-12 21:31N 53°33' E 009°55'0 0.0
2017-Oct-12 21:01N 53°33' E 009°55'0 0.0
2017-Oct-12 20:30N 53°33' E 009°55'0 0.0
2017-Oct-12 20:01N 53°33' E 009°55'0 0.0
2017-Oct-12 19:30N 53°33' E 009°55'0 0.0
2017-Oct-12 19:00N 53°33' E 009°55'0 0.0
2017-Oct-12 18:30N 53°33' E 009°55'0 0.0
2017-Oct-12 18:00N 53°33' E 009°55'0 0.0
2017-Oct-12 17:30N 53°33' E 009°55'0 0.0
2017-Oct-12 17:01N 53°33' E 009°55'0 0.0
2017-Oct-12 16:31N 53°33' E 009°55'0 0.0
2017-Oct-12 16:00N 53°33' E 009°55'0 0.0
2017-Oct-12 15:30N 53°33' E 009°55'0 0.0
2017-Oct-12 15:01N 53°33' E 009°55'0 0.0
2017-Oct-12 14:30N 53°33' E 009°55'0 0.0
2017-Oct-12 14:00N 53°33' E 009°55'0 0.0
2017-Oct-12 13:31N 53°33' E 009°55'0 0.0
2017-Oct-12 13:00N 53°33' E 009°55'0 0.0
2017-Oct-12 12:31N 53°33' E 009°55'0 0.0
2017-Oct-12 12:00N 53°33' E 009°55'0 0.0
2017-Oct-12 11:30N 53°33' E 009°55'0 0.0
2017-Oct-12 11:01N 53°33' E 009°55'0 0.0
2017-Oct-12 10:31N 53°33' E 009°55'0 0.0
2017-Oct-12 10:00N 53°33' E 009°55'0 0.0
2017-Oct-12 09:30N 53°33' E 009°55'1 1.2
2017-Oct-12 09:01N 53°32' E 009°54'1 1.2
2017-Oct-12 08:31N 53°33' E 009°55'3 5.1
2017-Oct-12 08:01N 53°30' E 009°57'0 0.1
2017-Oct-12 07:30N 53°30' E 009°57'2 4.0
2017-Oct-12 07:00N 53°32' E 009°56'1 1.2
2017-Oct-12 06:30N 53°33' E 009°55'0 0.0
2017-Oct-12 06:00N 53°33' E 009°55'0 0.0
2017-Oct-12 05:31N 53°33' E 009°55'0 0.0
2017-Oct-12 05:00N 53°33' E 009°55'0 0.0
2017-Oct-12 04:30N 53°33' E 009°55'0 0.0
2017-Oct-12 04:00N 53°33' E 009°55'0 0.0
2017-Oct-12 03:30N 53°33' E 009°55'0 0.0
2017-Oct-12 03:00N 53°33' E 009°55'0 0.0
2017-Oct-12 02:31N 53°33' E 009°55'0 0.0
2017-Oct-12 02:00N 53°33' E 009°55'0 0.0
2017-Oct-12 01:31N 53°33' E 009°55'0 0.0
2017-Oct-12 01:01N 53°33' E 009°55'0 0.0
2017-Oct-12 00:30N 53°33' E 009°55'0 0.0
2017-Oct-12 00:00N 53°33' E 009°55'0 0.0
2017-Oct-11 23:30N 53°33' E 009°55'0 0.0
2017-Oct-11 23:01N 53°33' E 009°55'0 0.0
2017-Oct-11 22:30N 53°33' E 009°55'0 0.0
2017-Oct-11 22:01N 53°33' E 009°55'0 0.0
2017-Oct-11 21:31N 53°33' E 009°55'1 1.7
2017-Oct-11 21:00N 53°32' E 009°55'2 4.1
2017-Oct-11 20:31N 53°30' E 009°57'0 0.8
2017-Oct-11 20:01N 53°30' E 009°56'2 3.1
2017-Oct-11 19:31N 53°31' E 009°56'2 4.5
2017-Oct-11 19:01N 53°33' E 009°53'1 2.9
2017-Oct-11 18:30N 53°33' E 009°55'0 0.0
2017-Oct-11 18:01N 53°33' E 009°55'0 0.0
2017-Oct-11 17:30N 53°33' E 009°55'0 0.0
2017-Oct-11 17:00N 53°33' E 009°55'0 0.0
2017-Oct-11 00:00N 53°33' E 009°55'0 0.0
2017-Oct-10 23:31N 53°33' E 009°55'0 0.0
2017-Oct-10 23:00N 53°33' E 009°55'0 0.0
2017-Oct-10 22:30N 53°33' E 009°55'0 0.0
2017-Oct-10 22:01N 53°33' E 009°55'0 0.0
2017-Oct-10 21:30N 53°33' E 009°55'0 0.0
2017-Oct-10 21:01N 53°33' E 009°55'0 0.0
2017-Oct-10 20:30N 53°33' E 009°55'0 0.0
2017-Oct-10 20:01N 53°33' E 009°55'0 0.0
2017-Oct-10 19:30N 53°33' E 009°55'0 0.0
2017-Oct-10 19:00N 53°33' E 009°55'0 0.0
2017-Oct-10 18:31N 53°33' E 009°55'0 0.0
2017-Oct-10 18:01N 53°33' E 009°55'0 0.0
2017-Oct-10 17:30N 53°33' E 009°55'0 0.0
2017-Oct-10 17:00N 53°33' E 009°55'0 0.0
2017-Oct-10 16:31N 53°33' E 009°55'0 0.0
2017-Oct-10 16:01N 53°33' E 009°55'0 0.0
2017-Oct-10 15:30N 53°33' E 009°55'0 0.0
2017-Oct-10 15:00N 53°33' E 009°55'1 0.9
2017-Oct-10 14:01N 53°32' E 009°55'1 1.8
2017-Oct-10 13:30N 53°33' E 009°55'0 0.7
2017-Oct-10 13:00N 53°33' E 009°55'0 0.1
2017-Oct-10 12:31N 53°33' E 009°55'0 0.5
2017-Oct-10 12:01N 53°33' E 009°55'0 0.5
2017-Oct-10 11:30N 53°33' E 009°55'0 0.0
2017-Oct-10 11:00N 53°33' E 009°55'0 0.0
2017-Oct-10 10:30N 53°33' E 009°55'0 0.0
2017-Oct-10 10:00N 53°33' E 009°55'0 0.0
2017-Oct-10 09:30N 53°33' E 009°55'0 0.0
2017-Oct-10 09:00N 53°33' E 009°55'0 0.0
2017-Oct-10 08:30N 53°33' E 009°55'0 0.0
2017-Oct-10 08:00N 53°33' E 009°55'0 0.0
2017-Oct-10 07:30N 53°33' E 009°55'0 0.0
2017-Oct-10 07:00N 53°33' E 009°55'0 0.0
2017-Oct-10 06:30N 53°33' E 009°55'0 0.0
2017-Oct-10 06:00N 53°33' E 009°55'0 0.0
2017-Oct-10 05:30N 53°33' E 009°55'0 0.0
2017-Oct-10 05:00N 53°33' E 009°55'0 0.0
2017-Oct-10 04:30N 53°33' E 009°55'0 0.0
2017-Oct-10 04:01N 53°33' E 009°55'0 0.0
2017-Oct-10 03:30N 53°33' E 009°55'0 0.0
2017-Oct-10 03:00N 53°33' E 009°55'0 0.0
2017-Oct-10 02:31N 53°33' E 009°55'0 0.0
2017-Oct-10 02:01N 53°33' E 009°55'0 0.0
2017-Oct-10 01:30N 53°33' E 009°55'0 0.0
2017-Oct-10 01:00N 53°33' E 009°55'0 0.0
2017-Oct-10 00:30N 53°33' E 009°55'0 0.0
2017-Oct-10 00:00N 53°33' E 009°55'0 0.0
2017-Oct-09 23:30N 53°33' E 009°55'  

Dump ship's entire track history